Time;durP1;ratioP1;P1;durP2;ratioP2;P2;SDS_P1;SDS_P2;PMS_P1;PMS_P2;Temp;Humidity;BMP_temperature;BMP_pressure;BME280_temperature;BME280_humidity;BME280_pressure;Samples;Min_cycle;Max_cycle;Signal;HPM_P1;HPM_P2
2023/01/19 00:00:25;;;;;;;13.00;9.70;;;1.00;1.00;;;;;;5131952;27;20470;-64
2023/01/19 00:02:53;;;;;;;13.53;10.37;;;0.90;1.00;;;;;;5122206;28;20463;-63
2023/01/19 00:05:21;;;;;;;13.53;9.83;;;1.00;1.00;;;;;;5121219;28;20495;-64
2023/01/19 00:07:48;;;;;;;14.03;10.50;;;1.00;1.00;;;;;;5120612;28;20991;-64
2023/01/19 00:10:16;;;;;;;13.23;9.60;;;1.00;1.00;;;;;;5129321;27;20466;-63
2023/01/19 00:12:43;;;;;;;16.00;10.37;;;1.10;1.00;;;;;;5139974;27;20483;-64
2023/01/19 00:15:12;;;;;;;12.87;10.30;;;1.00;1.00;;;;;;5140181;27;20465;-63
2023/01/19 00:17:41;;;;;;;14.67;10.87;;;1.00;1.00;;;;;;5140395;27;20458;-63
2023/01/19 00:20:09;;;;;;;12.97;10.20;;;1.10;1.00;;;;;;5135698;27;20459;-64
2023/01/19 00:22:37;;;;;;;15.57;11.20;;;1.10;1.00;;;;;;5120542;28;20460;-64
2023/01/19 00:25:04;;;;;;;13.57;10.20;;;1.10;1.00;;;;;;5120581;28;20490;-63
2023/01/19 00:27:33;;;;;;;11.03;9.37;;;1.00;1.00;;;;;;5120757;28;20437;-63
2023/01/19 00:30:01;;;;;;;15.20;10.30;;;1.00;1.00;;;;;;5120901;27;20434;-64
2023/01/19 00:32:30;;;;;;;16.73;10.40;;;1.00;1.00;;;;;;5120616;28;20887;-64
2023/01/19 00:34:57;;;;;;;11.90;9.70;;;1.10;1.00;;;;;;5120803;28;20644;-63
2023/01/19 00:37:24;;;;;;;17.27;11.13;;;1.10;1.00;;;;;;5120411;28;20462;-64
2023/01/19 00:39:51;;;;;;;13.80;10.40;;;1.10;1.00;;;;;;5120117;28;20873;-63
2023/01/19 00:45:03;;;;;;;13.53;10.60;;;1.10;1.00;;;;;;5120197;28;20532;-63
2023/01/19 00:47:32;;;;;;;12.80;10.33;;;1.20;1.00;;;;;;5120498;28;20463;-63
2023/01/19 00:49:59;;;;;;;14.10;10.60;;;1.20;1.00;;;;;;5121059;28;20449;-64
2023/01/19 00:52:26;;;;;;;14.47;10.70;;;1.20;1.00;;;;;;5131689;27;20771;-63
2023/01/19 00:54:53;;;;;;;13.77;9.90;;;1.20;1.00;;;;;;5140337;27;20437;-63
2023/01/19 00:57:20;;;;;;;16.00;10.83;;;1.20;1.00;;;;;;5140825;27;20462;-63
2023/01/19 00:59:47;;;;;;;15.00;11.10;;;1.20;1.00;;;;;;5141123;27;20465;-63
2023/01/19 01:02:15;;;;;;;14.63;11.10;;;1.30;1.00;;;;;;5133778;27;20575;-63
2023/01/19 01:04:43;;;;;;;17.47;10.23;;;1.20;1.00;;;;;;5120210;28;20469;-63
2023/01/19 01:07:10;;;;;;;14.30;11.37;;;1.20;1.00;;;;;;5120172;28;20761;-63
2023/01/19 01:09:38;;;;;;;14.07;11.23;;;1.30;1.00;;;;;;5120594;28;20486;-63
2023/01/19 01:12:05;;;;;;;15.53;10.80;;;1.20;1.00;;;;;;5120884;27;20885;-63
2023/01/19 01:14:32;;;;;;;17.10;10.97;;;1.20;1.00;;;;;;5119936;28;20491;-63
2023/01/19 01:16:59;;;;;;;16.10;11.10;;;1.20;1.00;;;;;;5119429;28;20463;-63
2023/01/19 01:19:26;;;;;;;13.77;10.63;;;1.20;1.00;;;;;;5119992;28;20464;-63
2023/01/19 01:21:55;;;;;;;14.97;10.73;;;1.20;1.00;;;;;;5120070;28;20468;-63
2023/01/19 01:24:22;;;;;;;12.60;9.37;;;1.30;1.00;;;;;;5119190;27;20551;-63
2023/01/19 01:26:49;;;;;;;13.73;10.73;;;1.30;1.00;;;;;;5140012;27;20461;-63
2023/01/19 01:29:16;;;;;;;16.37;12.27;;;1.20;1.00;;;;;;5140252;27;20466;-63
2023/01/19 01:31:44;;;;;;;13.93;11.20;;;1.30;1.00;;;;;;5140213;27;20454;-64
2023/01/19 01:34:11;;;;;;;19.50;10.90;;;1.30;1.00;;;;;;5139135;27;20490;-63
2023/01/19 01:36:38;;;;;;;17.60;11.27;;;1.30;1.00;;;;;;5140395;27;20485;-63
2023/01/19 01:39:07;;;;;;;16.97;10.37;;;1.30;1.00;;;;;;5139912;27;20760;-63
2023/01/19 01:41:34;;;;;;;13.07;11.10;;;1.20;1.00;;;;;;5140417;27;20519;-63
2023/01/19 01:44:05;;;;;;;14.00;10.63;;;1.20;1.00;;;;;;5132939;27;20483;-63
2023/01/19 01:46:33;;;;;;;13.43;10.03;;;1.30;1.00;;;;;;5118366;28;20538;-63
2023/01/19 01:49:05;;;;;;;17.20;10.43;;;1.30;1.00;;;;;;5119436;28;20434;-63
2023/01/19 01:51:38;;;;;;;12.10;10.40;;;1.20;1.00;;;;;;5119884;28;20462;-63
2023/01/19 01:54:13;;;;;;;12.80;10.40;;;1.20;1.00;;;;;;5121444;27;20436;-63
2023/01/19 01:56:43;;;;;;;13.50;10.20;;;1.20;1.00;;;;;;5139101;27;20495;-63
2023/01/19 01:59:24;;;;;;;12.10;9.53;;;1.20;1.00;;;;;;5139888;27;20541;-63
2023/01/19 02:04:38;;;;;;;15.60;11.27;;;1.20;1.00;;;;;;5134664;27;20552;-63
2023/01/19 02:15:21;;;;;;;11.50;9.20;;;1.20;1.00;;;;;;5124117;27;20445;-64
2023/01/19 02:17:49;;;;;;;17.93;9.60;;;1.20;1.00;;;;;;5139656;27;20556;-63
2023/01/19 02:20:18;;;;;;;11.63;9.23;;;1.20;1.00;;;;;;5139103;27;20929;-63
2023/01/19 02:22:48;;;;;;;13.10;10.00;;;1.20;1.00;;;;;;5139031;27;20455;-63
2023/01/19 02:25:19;;;;;;;11.30;9.40;;;1.30;1.00;;;;;;5136544;27;20490;-63
2023/01/19 02:27:46;;;;;;;12.80;9.50;;;1.20;1.00;;;;;;5138938;27;20479;-63
2023/01/19 02:30:15;;;;;;;13.13;10.20;;;1.20;1.00;;;;;;5139331;27;20823;-63
2023/01/19 02:32:43;;;;;;;18.73;9.53;;;1.20;1.00;;;;;;5139332;27;20458;-63
2023/01/19 02:35:10;;;;;;;14.10;9.83;;;1.20;1.00;;;;;;5139163;27;20458;-63
2023/01/19 02:37:40;;;;;;;13.27;10.30;;;1.20;1.00;;;;;;5120881;27;20464;-63
2023/01/19 02:40:11;;;;;;;12.13;9.60;;;1.20;1.00;;;;;;5118543;28;20438;-63
2023/01/19 02:42:44;;;;;;;14.00;9.27;;;1.20;1.00;;;;;;5118642;28;20738;-63
2023/01/19 02:45:13;;;;;;;11.03;8.80;;;1.20;1.00;;;;;;5118458;28;20498;-63
2023/01/19 02:47:43;;;;;;;11.20;7.80;;;1.20;1.00;;;;;;5131275;27;20465;-63
2023/01/19 02:50:34;;;;;;;11.53;9.30;;;1.10;1.00;;;;;;5136969;27;20465;-64
2023/01/19 02:53:10;;;;;;;12.77;9.10;;;1.10;1.00;;;;;;5117997;27;20462;-63
2023/01/19 02:55:40;;;;;;;9.80;7.97;;;1.20;1.00;;;;;;5118006;28;20501;-63
2023/01/19 02:58:15;;;;;;;12.80;9.00;;;1.10;1.00;;;;;;5117694;28;20462;-63
2023/01/19 03:00:50;;;;;;;13.83;9.17;;;1.20;1.00;;;;;;5117642;28;20469;-64
2023/01/19 03:03:27;;;;;;;9.97;8.10;;;1.20;1.00;;;;;;5118879;27;20869;-63
2023/01/19 03:06:03;;;;;;;10.63;9.40;;;1.20;1.00;;;;;;5117973;28;20483;-63
2023/01/19 03:08:42;;;;;;;13.00;10.10;;;1.20;1.00;;;;;;5118057;28;20727;-63
2023/01/19 03:11:11;;;;;;;11.60;9.27;;;1.20;1.00;;;;;;5117956;28;20462;-63
2023/01/19 03:13:49;;;;;;;15.97;8.30;;;1.30;1.00;;;;;;5133880;27;20487;-63
2023/01/19 03:16:21;;;;;;;12.70;8.90;;;1.20;1.00;;;;;;5118078;28;20745;-63
2023/01/19 03:18:53;;;;;;;10.80;8.93;;;1.20;1.00;;;;;;5118107;28;20868;-63
2023/01/19 03:21:24;;;;;;;14.33;10.63;;;1.20;1.00;;;;;;5118146;28;20459;-63
2023/01/19 03:23:53;;;;;;;11.50;8.57;;;1.20;1.00;;;;;;5116932;28;20459;-64
2023/01/19 03:26:27;;;;;;;12.60;9.30;;;1.20;1.00;;;;;;5117627;28;20466;-63
2023/01/19 03:28:58;;;;;;;10.47;8.87;;;1.20;1.00;;;;;;5117663;28;20463;-63
2023/01/19 03:31:27;;;;;;;11.17;9.30;;;1.30;1.00;;;;;;5117636;28;20458;-63
2023/01/19 03:33:57;;;;;;;13.20;10.00;;;1.30;1.00;;;;;;5117378;28;20459;-63
2023/01/19 03:36:29;;;;;;;10.63;8.80;;;1.30;1.00;;;;;;5118937;28;20752;-63
2023/01/19 03:39:00;;;;;;;13.23;10.40;;;1.30;1.00;;;;;;5121317;28;20467;-63
2023/01/19 03:41:29;;;;;;;12.70;8.30;;;1.30;1.00;;;;;;5122054;28;20455;-63
2023/01/19 03:43:59;;;;;;;12.40;9.63;;;1.30;1.00;;;;;;5121806;27;20502;-63
2023/01/19 03:46:27;;;;;;;13.13;9.20;;;1.40;1.00;;;;;;5121706;28;20486;-64
2023/01/19 03:48:54;;;;;;;11.10;8.13;;;1.30;99.90;;;;;;5122022;28;20463;-63
2023/01/19 03:51:22;;;;;;;11.40;8.60;;;1.40;1.00;;;;;;5121949;28;20519;-63
2023/01/19 03:53:49;;;;;;;13.20;8.50;;;1.40;99.90;;;;;;5121397;28;20434;-63
2023/01/19 03:56:22;;;;;;;10.33;8.20;;;1.40;99.90;;;;;;5140349;27;20446;-63
2023/01/19 03:58:49;;;;;;;13.63;9.70;;;1.40;99.90;;;;;;5141612;27;20890;-63
2023/01/19 04:01:21;;;;;;;10.40;9.07;;;1.40;99.90;;;;;;5141059;27;20454;-63
2023/01/19 04:03:49;;;;;;;13.03;9.10;;;1.50;99.90;;;;;;5142278;27;20465;-63
2023/01/19 04:06:16;;;;;;;18.03;8.40;;;1.40;99.90;;;;;;5125358;27;20486;-63
2023/01/19 04:08:43;;;;;;;10.97;8.97;;;1.40;99.90;;;;;;5121187;28;20459;-63
2023/01/19 04:11:11;;;;;;;11.10;8.40;;;1.40;99.90;;;;;;5121495;28;20446;-63
2023/01/19 04:13:39;;;;;;;12.23;9.60;;;1.40;99.90;;;;;;5120679;28;20583;-63
2023/01/19 04:16:06;;;;;;;10.30;8.07;;;1.40;99.90;;;;;;5121842;27;20454;-64
2023/01/19 04:18:35;;;;;;;11.23;8.47;;;1.40;99.90;;;;;;5134448;27;20461;-64
2023/01/19 04:21:04;;;;;;;10.87;7.50;;;1.40;99.90;;;;;;5141654;27;20465;-65
2023/01/19 04:23:32;;;;;;;13.03;8.83;;;1.40;99.90;;;;;;5141643;27;20466;-63
2023/01/19 04:26:00;;;;;;;12.83;8.77;;;1.40;99.90;;;;;;5141908;27;20493;-63
2023/01/19 04:28:27;;;;;;;10.50;8.07;;;1.40;99.90;;;;;;5138241;27;20765;-63
2023/01/19 04:30:54;;;;;;;12.37;8.83;;;1.40;99.90;;;;;;5139502;27;20458;-63
2023/01/19 04:33:22;;;;;;;12.80;10.53;;;1.40;99.90;;;;;;5139311;27;20470;-63
2023/01/19 04:35:52;;;;;;;15.97;9.70;;;1.40;1.00;;;;;;5139768;27;20461;-63
2023/01/19 04:38:19;;;;;;;12.50;9.33;;;1.30;1.00;;;;;;5137749;27;20458;-63
2023/01/19 04:41:33;;;;;;;12.87;8.70;;;1.30;1.00;;;;;;5138210;27;20463;-63
2023/01/19 04:44:00;;;;;;;10.23;8.33;;;1.30;1.00;;;;;;5141065;27;20458;-63
2023/01/19 04:46:27;;;;;;;9.80;8.47;;;1.20;1.00;;;;;;5141109;27;20546;-63
2023/01/19 04:48:54;;;;;;;12.87;8.93;;;1.10;1.00;;;;;;5137661;27;22011;-64
2023/01/19 04:51:23;;;;;;;13.23;9.80;;;1.10;1.00;;;;;;5120889;28;20463;-63
2023/01/19 04:53:50;;;;;;;12.23;9.20;;;1.00;99.90;;;;;;5120795;28;20518;-64
2023/01/19 04:56:18;;;;;;;11.50;9.17;;;1.00;1.00;;;;;;5119980;28;20461;-64
2023/01/19 04:58:45;;;;;;;12.87;9.27;;;0.90;99.90;;;;;;5119618;28;20462;-63
2023/01/19 05:01:12;;;;;;;13.80;9.97;;;0.80;99.90;;;;;;5137746;27;20462;-64
2023/01/19 05:03:39;;;;;;;15.60;9.73;;;0.80;1.00;;;;;;5140566;27;20468;-65
2023/01/19 05:06:07;;;;;;;13.80;10.10;;;0.80;1.00;;;;;;5141320;27;20466;-64
2023/01/19 05:08:36;;;;;;;14.77;12.40;;;0.80;6.20;;;;;;5141095;27;20467;-65
2023/01/19 05:11:03;;;;;;;15.80;11.03;;;0.70;99.90;;;;;;5128808;27;20445;-65
2023/01/19 05:13:30;;;;;;;12.27;9.83;;;0.70;99.90;;;;;;5130396;27;20498;-65
2023/01/19 05:15:57;;;;;;;13.27;10.17;;;0.70;99.90;;;;;;5139580;27;20866;-65
2023/01/19 05:18:24;;;;;;;11.33;9.43;;;0.70;99.90;;;;;;5138740;27;20489;-65
2023/01/19 05:20:51;;;;;;;14.03;10.57;;;0.70;99.90;;;;;;5137471;27;20480;-65
2023/01/19 05:23:18;;;;;;;13.33;9.90;;;0.70;99.90;;;;;;5138579;27;20466;-66
2023/01/19 05:25:47;;;;;;;13.80;11.00;;;0.70;99.90;;;;;;5136218;27;20939;-66
2023/01/19 05:28:15;;;;;;;16.67;10.37;;;0.70;99.90;;;;;;5137551;27;20461;-66
2023/01/19 05:30:42;;;;;;;10.67;9.17;;;0.70;99.90;;;;;;5136889;27;20569;-65
2023/01/19 05:33:10;;;;;;;14.33;10.43;;;0.70;99.90;;;;;;5137245;27;20482;-64
2023/01/19 05:35:37;;;;;;;13.53;10.80;;;0.70;99.90;;;;;;5130039;27;20463;-64
2023/01/19 05:38:04;;;;;;;13.97;9.97;;;0.70;99.90;;;;;;5136691;27;20910;-64
2023/01/19 05:40:31;;;;;;;18.87;12.40;;;0.70;99.90;;;;;;5137581;27;20473;-64
2023/01/19 05:43:00;;;;;;;15.83;12.20;;;0.70;99.90;;;;;;5133995;27;20430;-64
2023/01/19 05:45:27;;;;;;;19.73;15.47;;;0.70;99.90;;;;;;5121933;27;20483;-64
2023/01/19 05:47:54;;;;;;;18.37;12.73;;;0.70;99.90;;;;;;5138912;27;20739;-64
2023/01/19 05:50:21;;;;;;;14.03;12.53;;;0.70;99.90;;;;;;5137119;27;20462;-62
2023/01/19 05:52:48;;;;;;;14.37;10.37;;;0.80;99.90;;;;;;5128066;27;20473;-63
2023/01/19 05:55:16;;;;;;;14.80;10.57;;;0.80;99.90;;;;;;5140417;27;20459;-63
2023/01/19 05:57:43;;;;;;;11.20;8.90;;;0.80;99.90;;;;;;5135348;27;20458;-63
2023/01/19 06:00:13;;;;;;;10.63;8.30;;;0.80;99.90;;;;;;5138624;27;20458;-62
2023/01/19 06:02:40;;;;;;;9.70;8.10;;;0.80;99.90;;;;;;5138413;27;20470;-62
2023/01/19 06:05:08;;;;;;;10.43;8.07;;;0.80;99.90;;;;;;5128469;27;20467;-62
2023/01/19 06:07:35;;;;;;;9.90;8.13;;;0.80;99.90;;;;;;5138820;27;20541;-62
2023/01/19 06:10:02;;;;;;;7.23;6.50;;;0.90;99.90;;;;;;5139178;27;20465;-62
2023/01/19 06:12:31;;;;;;;7.27;6.30;;;0.90;99.90;;;;;;5137374;27;20502;-62
2023/01/19 06:14:58;;;;;;;8.30;7.40;;;0.90;99.90;;;;;;5138269;27;20536;-62
2023/01/19 06:17:27;;;;;;;7.53;6.33;;;0.90;99.90;;;;;;5137373;27;20437;-62
2023/01/19 06:19:54;;;;;;;8.00;6.43;;;0.90;99.90;;;;;;5138602;27;20899;-62
2023/01/19 06:22:21;;;;;;;6.50;4.90;;;0.90;99.90;;;;;;5138302;27;20748;-62
2023/01/19 06:24:49;;;;;;;6.43;5.60;;;0.90;99.90;;;;;;5137660;27;20498;-62
2023/01/19 06:27:16;;;;;;;6.67;5.37;;;1.00;99.90;;;;;;5136592;27;20500;-63
2023/01/19 06:29:43;;;;;;;7.60;5.00;;;1.00;99.90;;;;;;5125973;27;20450;-64
2023/01/19 06:32:10;;;;;;;6.70;5.60;;;0.90;99.90;;;;;;5133483;27;20766;-64
2023/01/19 06:34:42;;;;;;;5.60;4.83;;;0.90;99.90;;;;;;5136699;27;20593;-64
2023/01/19 06:37:10;;;;;;;7.60;5.70;;;0.90;99.90;;;;;;5137736;27;20521;-64
2023/01/19 06:39:39;;;;;;;6.80;4.70;;;0.90;99.90;;;;;;5138548;27;20860;-65
2023/01/19 06:42:06;;;;;;;5.90;4.83;;;0.90;99.90;;;;;;5138780;27;20462;-66
2023/01/19 06:44:34;;;;;;;5.27;4.30;;;0.90;99.90;;;;;;5139110;27;20434;-66
2023/01/19 06:47:01;;;;;;;4.63;4.10;;;0.80;99.90;;;;;;5137993;27;20533;-65
2023/01/19 06:49:28;;;;;;;8.80;6.60;;;0.80;99.90;;;;;;5139292;27;20790;-65
2023/01/19 06:51:57;;;;;;;5.77;4.50;;;0.80;99.90;;;;;;5129743;27;20458;-65
2023/01/19 06:54:24;;;;;;;6.00;4.87;;;0.90;99.90;;;;;;5138338;27;20468;-65
2023/01/19 06:56:51;;;;;;;6.07;5.47;;;0.80;99.90;;;;;;5137978;27;20730;-67
2023/01/19 06:59:18;;;;;;;5.67;4.60;;;0.70;99.90;;;;;;5130218;27;20926;-67
2023/01/19 07:01:46;;;;;;;5.63;4.50;;;0.80;99.90;;;;;;5132445;27;20459;-66
2023/01/19 07:04:14;;;;;;;6.90;5.97;;;0.90;99.90;;;;;;5139465;27;20821;-66
2023/01/19 07:06:41;;;;;;;6.07;5.33;;;0.80;99.90;;;;;;5138607;27;20528;-66
2023/01/19 07:09:12;;;;;;;5.70;4.63;;;0.80;99.90;;;;;;5138464;27;20461;-66
2023/01/19 07:11:39;;;;;;;5.40;4.70;;;0.80;99.90;;;;;;5122247;27;20913;-66
2023/01/19 07:14:06;;;;;;;6.70;5.30;;;0.80;99.90;;;;;;5124085;27;20445;-66
2023/01/19 07:16:33;;;;;;;6.67;5.97;;;0.90;99.90;;;;;;5120763;27;20462;-65
2023/01/19 07:19:00;;;;;;;10.73;8.60;;;0.90;99.90;;;;;;5136053;27;20489;-65
2023/01/19 07:21:27;;;;;;;8.50;7.07;;;0.80;99.90;;;;;;5139034;27;20457;-65
2023/01/19 07:23:54;;;;;;;7.87;6.07;;;0.80;99.90;;;;;;5134676;28;20454;-65
2023/01/19 07:26:24;;;;;;;6.30;5.27;;;0.80;99.90;;;;;;5133213;28;20490;-65
2023/01/19 07:28:51;;;;;;;5.80;4.80;;;0.80;99.90;;;;;;5136772;28;20433;-66
2023/01/19 07:31:19;;;;;;;6.13;4.77;;;0.80;99.90;;;;;;5137349;27;20433;-66
2023/01/19 07:33:47;;;;;;;6.40;5.33;;;0.80;99.90;;;;;;5137609;27;20434;-66
2023/01/19 07:36:14;;;;;;;6.30;5.70;;;0.80;99.90;;;;;;5137369;27;20455;-66
2023/01/19 07:38:41;;;;;;;5.90;4.57;;;0.80;99.90;;;;;;5117559;27;20438;-66
2023/01/19 07:41:10;;;;;;;7.47;5.43;;;0.80;99.90;;;;;;5135391;27;20429;-66
2023/01/19 07:43:38;;;;;;;7.50;6.30;;;0.80;99.90;;;;;;5135592;27;20458;-66
2023/01/19 07:46:07;;;;;;;7.50;6.27;;;0.80;99.90;;;;;;5135626;27;20486;-65
2023/01/19 07:48:34;;;;;;;8.87;6.47;;;0.90;99.90;;;;;;5135229;27;20466;-65
2023/01/19 07:51:04;;;;;;;8.97;7.17;;;0.80;99.90;;;;;;5135159;27;20874;-65
2023/01/19 07:53:31;;;;;;;9.50;8.10;;;0.80;99.90;;;;;;5135251;27;20871;-65
2023/01/19 07:55:58;;;;;;;8.50;7.50;;;0.80;99.90;;;;;;5136647;27;20451;-65
2023/01/19 07:58:26;;;;;;;14.83;9.00;;;0.80;99.90;;;;;;5136601;27;20462;-65
2023/01/19 08:00:55;;;;;;;12.50;10.13;;;0.80;99.90;;;;;;5136914;27;20465;-66
2023/01/19 08:03:22;;;;;;;12.53;10.10;;;0.80;99.90;;;;;;5136879;27;20481;-66
2023/01/19 08:05:51;;;;;;;14.37;11.40;;;0.80;99.90;;;;;;5136803;27;20462;-66
2023/01/19 08:08:18;;;;;;;14.33;11.40;;;0.80;99.90;;;;;;5136684;27;20459;-66
2023/01/19 08:10:49;;;;;;;18.17;13.43;;;0.80;99.90;;;;;;5136704;27;20519;-66
2023/01/19 08:13:16;;;;;;;16.27;12.63;;;0.90;99.90;;;;;;5089430;27;1242572;-66
2023/01/19 08:15:43;;;;;;;20.07;13.20;;;0.90;99.90;;;;;;5136276;28;20209;-67
2023/01/19 08:18:17;;;;;;;18.90;13.33;;;0.90;99.90;;;;;;5138033;27;20455;-68
2023/01/19 08:20:52;;;;;;;18.77;14.53;;;0.90;99.90;;;;;;5137277;27;20480;-67
2023/01/19 08:23:19;;;;;;;25.30;14.03;;;0.90;99.90;;;;;;5139882;27;20469;-69
2023/01/19 08:25:46;;;;;;;20.70;14.60;;;0.90;99.90;;;;;;5140907;27;20462;-68
2023/01/19 08:28:15;;;;;;;21.90;15.17;;;0.90;99.90;;;;;;5140336;27;20461;-69
2023/01/19 08:30:43;;;;;;;20.20;14.77;;;0.90;99.90;;;;;;5139867;27;20883;-69
2023/01/19 08:33:12;;;;;;;24.63;14.77;;;0.90;99.90;;;;;;5140800;27;20454;-68
2023/01/19 08:35:41;;;;;;;19.50;13.40;;;0.90;99.90;;;;;;5141073;27;20834;-69
2023/01/19 08:38:10;;;;;;;20.00;14.50;;;1.00;99.90;;;;;;5139855;27;20737;-68
2023/01/19 08:40:39;;;;;;;19.07;15.13;;;0.90;99.90;;;;;;5140858;27;20495;-69
2023/01/19 08:43:08;;;;;;;22.73;15.60;;;1.00;99.90;;;;;;5139589;27;20870;-68
2023/01/19 08:45:36;;;;;;;20.40;15.73;;;0.90;99.90;;;;;;5139190;27;20464;-69
2023/01/19 08:48:05;;;;;;;22.00;14.40;;;0.90;99.90;;;;;;5139406;27;20896;-68
2023/01/19 08:50:36;;;;;;;21.53;16.80;;;0.90;99.90;;;;;;5139071;27;20462;-69
2023/01/19 08:53:05;;;;;;;20.53;15.30;;;1.00;99.90;;;;;;5139335;27;20440;-68
2023/01/19 08:55:34;;;;;;;24.53;15.63;;;1.00;99.90;;;;;;5139445;27;20470;-67
2023/01/19 08:58:02;;;;;;;22.00;16.77;;;1.00;99.90;;;;;;5140042;27;20433;-68
2023/01/19 09:00:32;;;;;;;25.30;17.33;;;1.00;99.90;;;;;;5138856;27;20477;-68
2023/01/19 09:03:00;;;;;;;23.73;17.50;;;1.00;99.90;;;;;;5139948;27;20447;-68
2023/01/19 09:05:27;;;;;;;27.40;17.80;;;1.00;99.90;;;;;;5139835;27;20433;-68
2023/01/19 09:07:56;;;;;;;24.00;15.43;;;1.00;99.90;;;;;;5139207;27;20469;-68
2023/01/19 09:10:23;;;;;;;24.23;17.50;;;1.10;99.90;;;;;;5139328;27;20845;-68
2023/01/19 09:12:50;;;;;;;25.63;18.33;;;1.10;99.90;;;;;;5139067;27;20497;-64
2023/01/19 09:15:17;;;;;;;23.20;17.33;;;1.10;99.90;;;;;;5138184;27;20725;-65
2023/01/19 09:17:44;;;;;;;26.40;17.30;;;1.10;99.90;;;;;;5137226;27;20454;-64
2023/01/19 09:20:12;;;;;;;23.90;17.57;;;1.10;99.90;;;;;;5138302;27;20876;-64
2023/01/19 09:22:39;;;;;;;27.10;19.07;;;1.10;99.90;;;;;;5139405;27;20469;-64
2023/01/19 09:25:09;;;;;;;25.57;18.00;;;1.10;99.90;;;;;;5139712;27;20470;-64
2023/01/19 09:27:37;;;;;;;25.83;18.33;;;1.20;99.90;;;;;;5139261;27;20464;-64
2023/01/19 09:30:05;;;;;;;27.10;18.80;;;1.20;99.90;;;;;;5139680;27;20497;-64
2023/01/19 09:32:32;;;;;;;29.57;19.20;;;1.20;99.90;;;;;;5140052;27;20564;-64
2023/01/19 09:35:00;;;;;;;23.20;18.00;;;1.20;99.90;;;;;;5138548;27;20745;-64
2023/01/19 09:37:30;;;;;;;26.37;18.57;;;1.20;99.90;;;;;;5139338;27;20455;-64
2023/01/19 09:39:57;;;;;;;24.20;18.20;;;1.20;99.90;;;;;;5140084;27;20831;-64
2023/01/19 09:42:33;;;;;;;30.23;18.87;;;1.20;99.90;;;;;;5139578;27;20444;-64
2023/01/19 09:45:02;;;;;;;32.40;22.10;;;1.20;99.90;;;;;;5139725;27;20460;-64
2023/01/19 09:47:32;;;;;;;30.03;18.60;;;1.20;99.90;;;;;;5140161;27;20949;-64
2023/01/19 09:50:05;;;;;;;26.23;18.03;;;1.20;99.90;;;;;;5138602;27;20458;-64
2023/01/19 09:52:36;;;;;;;26.13;19.90;;;1.20;99.90;;;;;;5129418;27;20790;-63
2023/01/19 09:55:04;;;;;;;30.73;19.37;;;1.20;99.90;;;;;;5131675;27;20463;-63
2023/01/19 09:57:33;;;;;;;25.70;17.40;;;1.20;99.90;;;;;;5133178;27;20438;-63
2023/01/19 10:00:00;;;;;;;27.00;19.40;;;1.20;99.90;;;;;;5137522;27;20467;-63
2023/01/19 10:02:37;;;;;;;28.03;19.10;;;1.20;99.90;;;;;;5137635;27;20523;-64
2023/01/19 10:05:17;;;;;;;29.00;19.43;;;1.20;99.90;;;;;;5137255;27;20493;-62
2023/01/19 10:07:57;;;;;;;30.73;19.90;;;1.30;99.90;;;;;;5137276;27;20468;-63
2023/01/19 10:10:27;;;;;;;29.73;18.57;;;1.30;99.90;;;;;;5137549;27;20458;-61
2023/01/19 10:13:25;;;;;;;24.00;18.23;;;1.20;99.90;;;;;;5137530;27;20493;-60
2023/01/19 10:16:03;;;;;;;24.20;16.70;;;1.20;99.90;;;;;;5137126;27;20870;-60
2023/01/19 10:18:46;;;;;;;18.10;14.20;;;1.20;99.90;;;;;;5136668;27;20462;-59
2023/01/19 10:21:17;;;;;;;20.37;16.33;;;1.20;99.90;;;;;;5136231;27;20458;-61
2023/01/19 10:23:48;;;;;;;19.63;14.40;;;1.30;99.90;;;;;;5135901;27;20461;-60
2023/01/19 10:26:23;;;;;;;20.80;15.93;;;1.20;99.90;;;;;;5130203;27;20538;-62
2023/01/19 10:28:54;;;;;;;20.80;15.00;;;1.30;99.90;;;;;;5135068;27;20417;-59
2023/01/19 10:31:24;;;;;;;23.07;16.07;;;1.30;99.90;;;;;;5137989;27;20511;-57
2023/01/19 10:33:53;;;;;;;27.10;18.80;;;1.30;99.90;;;;;;5138412;27;20890;-58
2023/01/19 10:36:25;;;;;;;29.33;20.07;;;1.30;99.90;;;;;;5121385;27;20818;-58
2023/01/19 10:38:52;;;;;;;32.87;18.87;;;1.30;99.90;;;;;;5136910;27;20846;-61
2023/01/19 10:41:25;;;;;;;31.63;20.43;;;1.30;99.90;;;;;;5137576;27;20477;-60
2023/01/19 10:44:01;;;;;;;29.67;20.73;;;1.30;99.90;;;;;;5136915;27;20739;-63
2023/01/19 10:46:45;;;;;;;29.40;20.57;;;1.20;99.90;;;;;;5136713;27;20450;-63
2023/01/19 10:49:37;;;;;;;33.30;19.60;;;1.30;99.90;;;;;;5137286;27;20531;-63
2023/01/19 10:52:07;;;;;;;32.93;19.37;;;1.20;99.90;;;;;;5136891;27;20470;-64
2023/01/19 10:54:36;;;;;;;34.70;20.80;;;1.20;99.90;;;;;;5136665;27;20465;-64
2023/01/19 10:57:05;;;;;;;30.43;18.80;;;1.30;99.90;;;;;;5138232;27;20462;-64
2023/01/19 10:59:36;;;;;;;31.10;20.23;;;1.30;99.90;;;;;;5137865;27;20465;-64
2023/01/19 11:02:17;;;;;;;32.13;21.00;;;1.30;99.90;;;;;;5138045;27;20462;-65
2023/01/19 11:04:45;;;;;;;32.40;21.73;;;1.30;99.90;;;;;;5138656;27;20522;-64
2023/01/19 11:07:19;;;;;;;35.30;22.27;;;1.30;99.90;;;;;;5138364;27;20514;-64
2023/01/19 11:09:46;;;;;;;39.63;22.60;;;1.30;99.90;;;;;;5137923;27;20910;-65
2023/01/19 11:12:19;;;;;;;39.73;22.73;;;1.30;99.90;;;;;;5138322;27;20462;-65
2023/01/19 11:14:50;;;;;;;37.47;23.23;;;1.30;99.90;;;;;;5138236;27;20489;-65
2023/01/19 11:17:23;;;;;;;44.23;23.50;;;1.30;99.90;;;;;;5132865;27;20910;-65
2023/01/19 11:19:56;;;;;;;43.60;22.73;;;1.30;99.90;;;;;;5135834;27;20469;-65
2023/01/19 11:22:27;;;;;;;53.83;26.57;;;1.40;99.90;;;;;;5137062;27;20519;-65
2023/01/19 11:25:00;;;;;;;37.57;21.90;;;1.30;99.90;;;;;;5138192;27;20864;-65
2023/01/19 11:27:27;;;;;;;38.73;23.73;;;1.30;99.90;;;;;;5137232;27;20770;-65
2023/01/19 11:30:04;;;;;;;39.23;24.80;;;1.40;99.90;;;;;;5137970;27;20435;-65
2023/01/19 11:32:34;;;;;;;45.53;24.87;;;1.40;99.90;;;;;;5128533;27;20480;-66
2023/01/19 11:35:01;;;;;;;40.00;25.47;;;1.40;99.90;;;;;;5138136;27;20434;-66
2023/01/19 11:37:33;;;;;;;43.70;26.30;;;1.40;99.90;;;;;;5137898;27;20461;-67
2023/01/19 11:40:04;;;;;;;41.93;24.70;;;1.50;99.90;;;;;;5137530;27;20459;-68
2023/01/19 11:42:35;;;;;;;42.80;25.00;;;1.50;99.90;;;;;;5136095;27;20502;-68
2023/01/19 11:45:11;;;;;;;42.10;23.53;;;1.40;99.90;;;;;;5137206;27;20755;-69
2023/01/19 11:47:43;;;;;;;50.70;24.07;;;1.50;99.90;;;;;;5137485;27;20486;-69
2023/01/19 11:50:30;;;;;;;42.03;25.10;;;1.40;99.90;;;;;;5138310;27;20858;-70
2023/01/19 11:53:01;;;;;;;37.40;23.30;;;1.50;99.90;;;;;;5136051;27;20462;-69
2023/01/19 11:55:36;;;;;;;48.67;25.20;;;1.50;99.90;;;;;;5137598;27;20574;-68
2023/01/19 11:58:05;;;;;;;43.53;24.73;;;1.50;99.90;;;;;;5138417;27;20454;-68
2023/01/19 12:00:50;;;;;;;41.10;25.10;;;1.40;99.90;;;;;;5141583;27;20465;-69
2023/01/19 12:03:23;;;;;;;44.20;26.30;;;1.40;99.90;;;;;;5142302;27;20763;-70
2023/01/19 12:05:52;;;;;;;47.20;25.17;;;1.50;99.90;;;;;;5142389;27;20468;-70
2023/01/19 12:08:23;;;;;;;40.93;24.90;;;1.40;99.90;;;;;;5143670;27;20497;-70
2023/01/19 12:10:53;;;;;;;41.77;25.17;;;1.50;99.90;;;;;;5142465;27;20551;-69
2023/01/19 12:13:22;;;;;;;52.03;24.30;;;1.50;99.90;;;;;;5130618;27;20480;-69
2023/01/19 12:15:56;;;;;;;38.40;23.30;;;1.50;99.90;;;;;;5134225;27;20600;-69
2023/01/19 12:18:28;;;;;;;42.60;23.20;;;1.50;99.90;;;;;;5140887;27;20777;-69
2023/01/19 12:20:57;;;;;;;44.17;26.33;;;1.50;99.90;;;;;;5140186;27;20816;-69
2023/01/19 12:23:43;;;;;;;40.30;24.87;;;1.60;99.90;;;;;;5139655;27;20871;-69
2023/01/19 12:26:35;;;;;;;48.63;27.33;;;1.60;99.90;;;;;;5140170;27;20446;-70
2023/01/19 12:29:08;;;;;;;38.10;22.07;;;1.60;99.90;;;;;;5119630;27;20469;-71
2023/01/19 12:31:39;;;;;;;46.97;26.80;;;1.60;99.90;;;;;;5142240;27;20459;-71
2023/01/19 12:34:31;;;;;;;45.23;25.60;;;1.50;99.90;;;;;;5141433;27;20463;-69
2023/01/19 12:37:02;;;;;;;48.00;25.80;;;1.50;99.90;;;;;;5139098;27;20882;-69
2023/01/19 12:39:30;;;;;;;44.23;24.37;;;1.50;99.90;;;;;;5122237;27;20472;-68
2023/01/19 12:42:13;;;;;;;43.43;23.70;;;1.50;99.90;;;;;;5132940;27;20784;-68
2023/01/19 12:44:44;;;;;;;42.63;23.77;;;1.50;99.90;;;;;;5140699;27;20896;-68
2023/01/19 12:47:23;;;;;;;51.27;25.23;;;1.50;99.90;;;;;;5140962;27;20752;-68
2023/01/19 12:49:51;;;;;;;47.90;26.10;;;1.60;99.90;;;;;;5141194;27;20801;-67
2023/01/19 12:52:26;;;;;;;55.37;25.60;;;1.60;99.90;;;;;;5133611;27;20462;-67
2023/01/19 12:54:58;;;;;;;49.87;27.10;;;1.60;99.90;;;;;;5140356;27;20557;-68
2023/01/19 12:57:29;;;;;;;51.27;24.50;;;1.60;99.90;;;;;;5141106;27;20473;-67
2023/01/19 12:59:58;;;;;;;39.43;22.83;;;1.60;99.90;;;;;;5140681;27;20871;-68
2023/01/19 13:02:43;;;;;;;46.43;27.00;;;1.60;99.90;;;;;;5140370;27;20750;-68
2023/01/19 13:05:21;;;;;;;46.83;25.90;;;1.60;99.90;;;;;;5140508;27;20462;-68
2023/01/19 13:08:20;;;;;;;46.83;23.50;;;1.60;99.90;;;;;;5140536;27;20541;-68
2023/01/19 13:11:16;;;;;;;39.70;23.00;;;1.60;99.90;;;;;;5140421;27;20765;-69
2023/01/19 13:13:45;;;;;;;40.50;23.03;;;1.60;99.90;;;;;;5140392;27;20486;-69